createdAt,value
2022-09-11T00:01:41.116Z,97416.84
2022-09-11T00:04:42.621Z,97415.41
2022-09-11T00:07:44.038Z,97426.50
2022-09-11T00:10:48.283Z,97425.66
2022-09-11T00:13:51.712Z,97415.03
2022-09-11T00:16:53.000Z,97418.84
2022-09-11T00:19:54.384Z,97421.09
2022-09-11T00:22:56.063Z,97414.56
2022-09-11T00:26:02.454Z,97419.19
2022-09-11T00:29:04.965Z,97420.25
2022-09-11T00:32:06.366Z,97419.47
2022-09-11T00:35:08.182Z,97418.19
2022-09-11T00:38:12.175Z,97408.16
2022-09-11T00:41:21.502Z,97411.88
2022-09-11T00:44:26.865Z,97411.38
2022-09-11T00:47:30.933Z,97411.88
2022-09-11T00:50:32.797Z,97411.50
2022-09-11T00:53:37.029Z,97423.44
2022-09-11T00:56:41.554Z,97414.78
2022-09-11T00:59:45.039Z,97397.44
2022-09-11T01:02:47.650Z,97402.63
2022-09-11T01:05:49.450Z,97405.03
2022-09-11T01:08:51.360Z,97400.78
2022-09-11T01:12:06.886Z,97399.13
2022-09-11T01:15:31.582Z,97405.69
2022-09-11T01:18:43.455Z,97397.88
2022-09-11T01:21:59.342Z,97394.69
2022-09-11T01:25:29.641Z,97396.13
2022-09-11T01:28:38.201Z,97398.94
2022-09-11T01:31:48.371Z,97394.19
2022-09-11T01:35:01.771Z,97389.09
2022-09-11T01:38:17.534Z,97398.94
2022-09-11T01:41:41.664Z,97392.22
2022-09-11T01:44:51.723Z,97396.53
2022-09-11T01:47:55.650Z,97408.47
2022-09-11T01:51:00.868Z,97412.06
2022-09-11T01:54:04.884Z,97407.38
2022-09-11T01:57:11.537Z,97407.25
2022-09-11T02:00:14.314Z,97399.94
2022-09-11T02:03:25.691Z,97400.13
2022-09-11T02:06:34.589Z,97403.00
2022-09-11T02:09:53.954Z,97409.75
2022-09-11T02:13:14.236Z,97404.19
2022-09-11T02:16:35.259Z,97411.06
2022-09-11T02:19:39.520Z,97410.44
2022-09-11T02:22:41.182Z,97419.63
2022-09-11T02:25:42.839Z,97420.47
2022-09-11T02:28:44.693Z,97418.84
2022-09-11T02:31:46.955Z,97410.97
2022-09-11T02:34:50.197Z,97414.78
2022-09-11T02:38:01.415Z,97422.22
2022-09-11T02:41:17.967Z,97421.09
2022-09-11T02:44:38.384Z,97424.59
2022-09-11T02:48:05.048Z,97424.78
2022-09-11T02:51:28.870Z,97426.44
2022-09-11T02:54:52.806Z,97435.47
2022-09-11T02:58:09.954Z,97438.81
2022-09-11T03:01:13.231Z,97434.09
2022-09-11T03:04:15.625Z,97437.44
2022-09-11T03:07:17.383Z,97436.31
2022-09-11T03:10:19.171Z,97436.16
2022-09-11T03:13:20.850Z,97431.25
2022-09-11T03:16:23.057Z,97425.38
2022-09-11T03:19:25.526Z,97437.44
2022-09-11T03:22:27.042Z,97437.78
2022-09-11T03:25:29.887Z,97435.31
2022-09-11T03:28:34.589Z,97442.19
2022-09-11T03:31:41.431Z,97438.06
2022-09-11T03:34:43.029Z,97434.03
2022-09-11T03:37:46.734Z,97436.56
2022-09-11T03:40:48.234Z,97431.88
2022-09-11T03:43:50.088Z,97437.63
2022-09-11T03:46:52.920Z,97435.94
2022-09-11T03:49:56.002Z,97440.97
2022-09-11T03:52:58.484Z,97436.78
2022-09-11T03:56:04.063Z,97435.56
2022-09-11T03:59:13.318Z,97434.25
2022-09-11T04:02:15.578Z,97441.59
2022-09-11T04:05:17.860Z,97438.22
2022-09-11T04:08:19.692Z,97434.72
2022-09-11T04:11:22.449Z,97428.41
2022-09-11T04:14:25.178Z,97434.88
2022-09-11T04:17:31.890Z,97435.00
2022-09-11T04:20:33.445Z,97434.38
2022-09-11T04:23:35.247Z,97439.06
2022-09-11T04:26:36.864Z,97438.22
2022-09-11T04:29:44.096Z,97436.44
2022-09-11T04:32:46.155Z,97441.59
2022-09-11T04:35:47.838Z,97448.72
2022-09-11T04:38:55.092Z,97457.16
2022-09-11T04:41:57.416Z,97459.59
2022-09-11T04:44:58.833Z,97458.44
2022-09-11T04:48:00.881Z,97465.09
2022-09-11T04:51:05.481Z,97459.22
2022-09-11T04:54:07.666Z,97469.53
2022-09-11T04:57:11.236Z,97473.97
2022-09-11T05:00:14.372Z,97479.06
2022-09-11T05:03:17.906Z,97480.63
2022-09-11T05:06:19.731Z,97487.97
2022-09-11T05:09:22.503Z,97499.63
2022-09-11T05:12:23.885Z,97497.16
2022-09-11T05:15:25.334Z,97493.66
2022-09-11T05:18:27.389Z,97507.97
2022-09-11T05:21:30.184Z,97507.34
2022-09-11T05:24:31.653Z,97507.34
2022-09-11T05:27:33.601Z,97513.03
2022-09-11T05:30:36.282Z,97511.03
2022-09-11T05:33:38.277Z,97512.25
2022-09-11T05:36:41.301Z,97508.28
2022-09-11T05:39:43.022Z,97510.19
2022-09-11T05:42:46.327Z,97515.03
2022-09-11T05:45:56.652Z,97513.56
2022-09-11T05:48:59.592Z,97520.41
2022-09-11T05:52:02.537Z,97520.50
2022-09-11T05:55:06.300Z,97526.53
2022-09-11T05:58:07.958Z,97533.06
2022-09-11T06:01:11.947Z,97532.31
2022-09-11T06:04:15.042Z,97533.06
2022-09-11T06:07:19.641Z,97537.06
2022-09-11T06:10:23.372Z,97543.28
2022-09-11T06:13:26.393Z,97551.97
2022-09-11T06:16:29.154Z,97551.41
2022-09-11T06:19:34.462Z,97552.56
2022-09-11T06:22:37.554Z,97559.88
2022-09-11T06:25:39.043Z,97561.50
2022-09-11T06:28:41.617Z,97565.06
2022-09-11T06:31:45.847Z,97570.91
2022-09-11T06:34:48.039Z,97564.06
2022-09-11T06:37:50.252Z,97564.53
2022-09-11T06:40:51.878Z,97570.91
2022-09-11T06:43:53.609Z,97575.81
2022-09-11T06:46:55.170Z,97580.00
2022-09-11T06:49:58.396Z,97585.91
2022-09-11T06:53:07.866Z,97581.22
2022-09-11T06:56:14.279Z,97590.66
2022-09-11T06:59:17.882Z,97578.03
2022-09-11T07:02:19.781Z,97580.50
2022-09-11T07:05:25.684Z,97584.00
2022-09-11T07:08:27.922Z,97579.38
2022-09-11T07:11:32.392Z,97574.56
2022-09-11T07:14:34.678Z,97584.13
2022-09-11T07:17:45.314Z,97589.38
2022-09-11T07:20:48.165Z,97591.22
2022-09-11T07:23:54.352Z,97587.91
2022-09-11T07:26:56.228Z,97588.41
2022-09-11T07:30:05.245Z,97592.94
2022-09-11T07:33:11.087Z,97603.59
2022-09-11T07:36:15.029Z,97591.31
2022-09-11T07:39:18.257Z,97596.31
2022-09-11T07:42:29.233Z,97595.84
2022-09-11T07:45:33.163Z,97601.66
2022-09-11T07:48:34.605Z,97600.28
2022-09-11T07:51:37.587Z,97599.44
2022-09-11T07:54:41.193Z,97611.69
2022-09-11T07:57:42.822Z,97615.94
2022-09-11T08:00:45.224Z,97607.94
2022-09-11T08:03:54.777Z,97609.78
2022-09-11T08:06:56.190Z,97617.19
2022-09-11T08:10:26.252Z,97613.44
2022-09-11T08:13:25.075Z,97617.63
2022-09-11T08:16:27.936Z,97626.00
2022-09-11T08:19:32.875Z,97627.59
2022-09-11T08:22:36.527Z,97617.59
2022-09-11T08:25:39.216Z,97622.66
2022-09-11T08:28:44.031Z,97614.31
2022-09-11T08:31:45.737Z,97620.78
2022-09-11T08:34:48.538Z,97618.19
2022-09-11T08:37:54.741Z,97626.09
2022-09-11T08:40:59.846Z,97623.94
2022-09-11T08:44:21.873Z,97623.28
2022-09-11T08:47:28.517Z,97624.84
2022-09-11T08:50:39.967Z,97630.41
2022-09-11T08:53:42.012Z,97620.47
2022-09-11T08:56:45.411Z,97625.38
2022-09-11T09:00:06.070Z,97625.88
2022-09-11T09:03:36.274Z,97624.28
2022-09-11T09:06:46.287Z,97626.78
2022-09-11T09:09:59.843Z,97621.03
2022-09-11T09:13:15.276Z,97620.91
2022-09-11T09:16:49.724Z,97619.75
2022-09-11T09:20:00.522Z,97619.06
2022-09-11T09:23:24.661Z,97624.47
2022-09-11T09:26:38.425Z,97626.16
2022-09-11T09:29:41.982Z,97627.66
2022-09-11T09:32:55.321Z,97625.09
2022-09-11T09:36:11.856Z,97622.94
2022-09-11T09:39:16.699Z,97621.09
2022-09-11T09:42:28.359Z,97629.88
2022-09-11T09:46:09.874Z,97622.44
2022-09-11T09:49:14.563Z,97629.19
2022-09-11T09:52:22.118Z,97625.81
2022-09-11T09:55:23.558Z,97630.38
2022-09-11T09:58:34.021Z,97634.41
2022-09-11T10:01:50.798Z,97629.19
2022-09-11T10:05:08.505Z,97632.88
2022-09-11T10:08:37.859Z,97629.84
2022-09-11T10:11:39.354Z,97626.63
2022-09-11T10:14:57.774Z,97624.94
2022-09-11T10:18:21.553Z,97619.19
2022-09-11T10:21:30.153Z,97622.88
2022-09-11T10:24:34.101Z,97622.06
2022-09-11T10:27:42.963Z,97626.66
2022-09-11T10:30:58.277Z,97627.63
2022-09-11T10:34:00.829Z,97619.38
2022-09-11T10:37:08.960Z,97608.03
2022-09-11T10:40:21.380Z,97606.66
2022-09-11T10:43:27.950Z,97608.78
2022-09-11T10:46:39.087Z,97606.38
2022-09-11T10:49:40.557Z,97599.84
2022-09-11T10:53:19.978Z,97598.63
2022-09-11T10:56:22.015Z,97610.50
2022-09-11T10:59:40.999Z,97602.34
2022-09-11T11:03:06.460Z,97606.13
2022-09-11T11:06:26.653Z,97610.31
2022-09-11T11:10:13.020Z,97608.38
2022-09-11T11:13:53.165Z,97599.00
2022-09-11T11:17:15.846Z,97601.31
2022-09-11T11:20:32.590Z,97595.44
2022-09-11T11:24:02.022Z,97596.97
2022-09-11T11:27:04.511Z,97596.44
2022-09-11T11:30:19.306Z,97590.91
2022-09-11T11:34:01.510Z,97591.44
2022-09-11T11:37:13.338Z,97598.97
2022-09-11T11:40:21.286Z,97593.88
2022-09-11T11:43:28.208Z,97595.44
2022-09-11T11:46:52.413Z,97605.19
2022-09-11T11:50:11.037Z,97608.63
2022-09-11T11:53:22.978Z,97606.72
2022-09-11T11:56:49.013Z,97614.19
2022-09-11T12:00:03.097Z,97605.13
2022-09-11T12:03:23.659Z,97597.28
2022-09-11T12:06:26.314Z,97606.28
2022-09-11T12:09:33.600Z,97599.16
2022-09-11T12:12:46.048Z,97605.50
2022-09-11T12:16:14.991Z,97608.16
2022-09-11T12:19:22.478Z,97604.19
2022-09-11T12:22:34.073Z,97591.34
2022-09-11T12:25:35.439Z,97593.59
2022-09-11T12:28:37.839Z,97581.78
2022-09-11T12:32:04.770Z,97599.84
2022-09-11T12:35:19.837Z,97591.53
2022-09-11T12:38:38.249Z,97591.19
2022-09-11T12:41:39.643Z,97594.19
2022-09-11T12:44:47.249Z,97597.44
2022-09-11T12:47:48.725Z,97593.16
2022-09-11T12:50:54.175Z,97591.78
2022-09-11T12:54:01.231Z,97589.50
2022-09-11T12:57:10.059Z,97587.81
2022-09-11T13:00:23.185Z,97586.75
2022-09-11T13:03:28.002Z,97577.84
2022-09-11T13:06:42.022Z,97577.84
2022-09-11T13:09:49.078Z,97580.19
2022-09-11T13:12:53.618Z,97582.34
2022-09-11T13:15:57.933Z,97583.47
2022-09-11T13:19:07.661Z,97583.94
2022-09-11T13:22:27.664Z,97579.03
2022-09-11T13:25:32.775Z,97579.06
2022-09-11T13:28:45.151Z,97574.09
2022-09-11T13:31:46.702Z,97573.41
2022-09-11T13:34:58.613Z,97567.91
2022-09-11T13:38:09.938Z,97570.63
2022-09-11T13:41:19.448Z,97559.59
2022-09-11T13:44:39.546Z,97570.50
2022-09-11T13:47:41.990Z,97564.09
2022-09-11T13:50:43.893Z,97568.13
2022-09-11T13:53:51.642Z,97562.81
2022-09-11T13:56:55.845Z,97560.94
2022-09-11T14:00:00.849Z,97560.34
2022-09-11T14:03:02.382Z,97560.66
2022-09-11T14:06:10.752Z,97549.72
2022-09-11T14:09:19.322Z,97558.84
2022-09-11T14:12:21.015Z,97547.94
2022-09-11T14:15:54.818Z,97547.59
2022-09-11T14:19:13.088Z,97544.97
2022-09-11T14:22:21.775Z,97538.34
2022-09-11T14:25:24.154Z,97535.09
2022-09-11T14:28:36.521Z,97535.19
2022-09-11T14:31:43.995Z,97529.75
2022-09-11T14:34:45.370Z,97527.06
2022-09-11T14:37:46.979Z,97524.38
2022-09-11T14:40:58.900Z,97526.78
2022-09-11T14:44:02.078Z,97530.06
2022-09-11T14:47:03.512Z,97532.69
2022-09-11T14:50:06.703Z,97522.88
2022-09-11T14:53:23.747Z,97523.63
2022-09-11T14:56:25.501Z,97526.09
2022-09-11T14:59:29.060Z,97524.78
2022-09-11T15:02:30.501Z,97514.63
2022-09-11T15:05:33.711Z,97519.19
2022-09-11T15:08:35.141Z,97515.84
2022-09-11T15:11:39.447Z,97516.19
2022-09-11T15:14:58.844Z,97515.47
2022-09-11T15:18:01.128Z,97515.75
2022-09-11T15:21:02.646Z,97516.59
2022-09-11T15:24:05.450Z,97512.13
2022-09-11T15:27:07.358Z,97511.09
2022-09-11T15:30:09.910Z,97507.28
2022-09-11T15:33:11.355Z,97504.41
2022-09-11T15:36:14.097Z,97502.72
2022-09-11T15:39:18.896Z,97495.81
2022-09-11T15:42:20.516Z,97496.78
2022-09-11T15:45:22.066Z,97496.41
2022-09-11T15:48:23.498Z,97499.09
2022-09-11T15:51:24.947Z,97499.09
2022-09-11T15:54:27.341Z,97500.81
2022-09-11T15:57:30.875Z,97494.97
2022-09-11T16:00:33.999Z,97498.41
2022-09-11T16:03:36.787Z,97495.78
2022-09-11T16:06:41.205Z,97487.81
2022-09-11T16:09:42.664Z,97492.63
2022-09-11T16:12:46.236Z,97492.47
2022-09-11T16:15:49.247Z,97492.38
2022-09-11T16:18:50.959Z,97488.72
2022-09-11T16:21:53.529Z,97487.50
2022-09-11T16:24:54.933Z,97488.97
2022-09-11T16:27:57.594Z,97493.47
2022-09-11T16:31:01.372Z,97492.72
2022-09-11T16:34:04.986Z,97488.19
2022-09-11T16:37:06.370Z,97489.28
2022-09-11T16:40:09.351Z,97488.00
2022-09-11T16:43:18.229Z,97491.88
2022-09-11T16:46:25.533Z,97496.16
2022-09-11T16:49:26.933Z,97483.63
2022-09-11T16:52:29.050Z,97489.56
2022-09-11T16:55:30.454Z,97497.97
2022-09-11T16:58:34.039Z,97486.19
2022-09-11T17:01:36.806Z,97484.56
2022-09-11T17:04:38.210Z,97471.13
2022-09-11T17:07:41.416Z,97473.72
2022-09-11T17:10:50.549Z,97473.41
2022-09-11T17:13:52.617Z,97476.19
2022-09-11T17:16:54.237Z,97472.59
2022-09-11T17:19:58.461Z,97480.63
2022-09-11T17:22:59.839Z,97483.22
2022-09-11T17:26:06.646Z,97487.16
2022-09-11T17:29:08.500Z,97481.06
2022-09-11T17:32:27.377Z,97481.53
2022-09-11T17:35:29.478Z,97482.88
2022-09-11T17:38:31.333Z,97496.38
2022-09-11T17:41:32.740Z,97490.69
2022-09-11T17:44:34.149Z,97485.00
2022-09-11T17:47:36.285Z,97490.72
2022-09-11T17:50:37.709Z,97500.50
2022-09-11T17:53:42.887Z,97501.69
2022-09-11T17:56:44.280Z,97505.22
2022-09-11T17:59:50.232Z,97515.44
2022-09-11T18:02:53.851Z,97507.66
2022-09-11T18:05:55.627Z,97505.63
2022-09-11T18:09:01.532Z,97510.69
2022-09-11T18:12:03.551Z,97500.97
2022-09-11T18:15:06.345Z,97509.84
2022-09-11T18:18:07.855Z,97511.72
2022-09-11T18:21:11.301Z,97509.69
2022-09-11T18:24:19.821Z,97514.66
2022-09-11T18:27:21.385Z,97516.19
2022-09-11T18:30:22.789Z,97522.31
2022-09-11T18:33:24.181Z,97513.31
2022-09-11T18:36:27.407Z,97512.91
2022-09-11T18:39:28.934Z,97524.22
2022-09-11T18:42:30.414Z,97520.16
2022-09-11T18:45:35.085Z,97522.00
2022-09-11T18:48:37.151Z,97520.88
2022-09-11T18:51:38.559Z,97525.44
2022-09-11T18:54:40.106Z,97521.44
2022-09-11T18:57:44.819Z,97528.53
2022-09-11T19:00:49.086Z,97525.13
2022-09-11T19:03:52.973Z,97523.53
2022-09-11T19:06:54.884Z,97535.34
2022-09-11T19:09:56.253Z,97529.94
2022-09-11T19:12:57.704Z,97528.13
2022-09-11T19:16:00.317Z,97534.25
2022-09-11T19:19:02.877Z,97535.81
2022-09-11T19:22:04.410Z,97535.13
2022-09-11T19:25:07.945Z,97537.59
2022-09-11T19:28:09.442Z,97537.63
2022-09-11T19:31:12.785Z,97539.22
2022-09-11T19:34:14.140Z,97539.03
2022-09-11T19:37:15.780Z,97540.09
2022-09-11T19:40:17.350Z,97541.69
2022-09-11T19:43:23.534Z,97536.72
2022-09-11T19:46:27.046Z,97534.31
2022-09-11T19:49:29.258Z,97529.84
2022-09-11T19:52:32.974Z,97531.81
2022-09-11T19:55:35.134Z,97544.66
2022-09-11T19:58:38.628Z,97539.50
2022-09-11T20:01:40.106Z,97541.38
2022-09-11T20:04:41.525Z,97539.78
2022-09-11T20:07:43.656Z,97545.53
2022-09-11T20:10:46.569Z,97551.66
2022-09-11T20:13:48.837Z,97556.53
2022-09-11T20:16:50.496Z,97550.78
2022-09-11T20:19:51.884Z,97552.88
2022-09-11T20:22:54.576Z,97555.19
2022-09-11T20:26:06.455Z,97558.25
2022-09-11T20:29:15.817Z,97546.75
2022-09-11T20:32:18.037Z,97552.09
2022-09-11T20:35:19.474Z,97551.75
2022-09-11T20:38:22.185Z,97547.59
2022-09-11T20:41:25.325Z,97543.56
2022-09-11T20:44:27.089Z,97547.53
2022-09-11T20:47:28.976Z,97544.31
2022-09-11T20:50:31.486Z,97546.84
2022-09-11T20:53:32.990Z,97536.44
2022-09-11T20:56:34.809Z,97536.69
2022-09-11T20:59:36.552Z,97528.91
2022-09-11T21:02:37.985Z,97530.75
2022-09-11T21:05:39.393Z,97532.38
2022-09-11T21:08:42.149Z,97533.59
2022-09-11T21:11:56.104Z,97522.16
2022-09-11T21:15:00.436Z,97534.53
2022-09-11T21:18:06.135Z,97531.19
2022-09-11T21:21:11.912Z,97531.88
2022-09-11T21:24:17.038Z,97525.75
2022-09-11T21:27:21.641Z,97522.19
2022-09-11T21:30:23.730Z,97521.59
2022-09-11T21:33:26.500Z,97526.09
2022-09-11T21:36:28.791Z,97521.50
2022-09-11T21:39:30.253Z,97528.72
2022-09-11T21:42:31.674Z,97529.44
2022-09-11T21:45:33.070Z,97530.75
2022-09-11T21:48:36.161Z,97526.97
2022-09-11T21:51:37.566Z,97531.41
2022-09-11T21:54:39.067Z,97528.97
2022-09-11T21:57:40.469Z,97521.88
2022-09-11T22:00:43.404Z,97515.56
2022-09-11T22:03:45.783Z,97517.66
2022-09-11T22:06:47.313Z,97516.06
2022-09-11T22:09:49.250Z,97514.25
2022-09-11T22:12:51.472Z,97521.38
2022-09-11T22:15:52.935Z,97525.31
2022-09-11T22:18:54.623Z,97531.94
2022-09-11T22:21:56.237Z,97529.19
2022-09-11T22:24:57.797Z,97535.38
2022-09-11T22:27:59.437Z,97538.47
2022-09-11T22:31:00.978Z,97538.03
2022-09-11T22:34:02.602Z,97530.06
2022-09-11T22:37:04.406Z,97530.63
2022-09-11T22:40:06.853Z,97531.78
2022-09-11T22:43:08.408Z,97530.00
2022-09-11T22:46:10.053Z,97536.94
2022-09-11T22:49:11.617Z,97528.56
2022-09-11T22:52:13.085Z,97531.94
2022-09-11T22:55:14.819Z,97527.91
2022-09-11T22:58:16.521Z,97526.72
2022-09-11T23:01:22.235Z,97520.31
2022-09-11T23:04:23.871Z,97521.91
2022-09-11T23:07:25.233Z,97513.78
2022-09-11T23:10:26.771Z,97517.28
2022-09-11T23:13:29.862Z,97514.91
2022-09-11T23:16:31.364Z,97517.31
2022-09-11T23:19:34.170Z,97513.66
2022-09-11T23:22:35.736Z,97517.72
2022-09-11T23:25:40.048Z,97514.13
2022-09-11T23:28:42.319Z,97510.38
2022-09-11T23:31:44.982Z,97509.41
2022-09-11T23:34:46.452Z,97508.38
2022-09-11T23:37:48.257Z,97510.56
2022-09-11T23:40:49.790Z,97506.34
2022-09-11T23:43:51.684Z,97506.09
2022-09-11T23:46:53.138Z,97507.00
2022-09-11T23:49:54.562Z,97505.72
2022-09-11T23:52:55.945Z,97506.69
2022-09-11T23:55:57.973Z,97499.22
2022-09-11T23:58:59.501Z,97494.53
